Ax323189glimfeather — 323189 — position and weather

sailwx.info

Track history (hours):
 
Tides and Currents Weather Stations Pressure Air Temp Water Temp Dewpoint Dewpoint Depression Visibility Wind Speed Wind Dir Waves Ship Positions

Ax323189glimfeather

Last reported at 2017-Oct-15 00:12 UTC. Time now 2017-Oct-22 06:36 UTC.
Position N 47°59' W 122°13'.

Length 11 m.

Type: Pleasure craft. MMSI: 338051951.

Date/timePositionNaut miles runAvg speedWind from/ knotsBaromVisibWave heightAir tempDewpointWater temp
2017-Oct-15 00:12N 47°59' W 122°13'1 3.5
2017-Oct-15 00:00N 47°60' W 122°13'0 0.1
2017-Oct-14 23:30N 47°60' W 122°13'0 0.0
2017-Oct-14 22:59N 47°60' W 122°13'0 0.0
2017-Oct-14 22:16N 47°60' W 122°13'1 2.6
2017-Oct-14 22:00N 47°59' W 122°14'1 1.2
2017-Oct-14 21:30N 47°59' W 122°15'1 2.4
2017-Oct-14 21:00N 47°60' W 122°13'0 0.0
2017-Oct-14 20:27N 47°60' W 122°13'0 0.0
2017-Oct-14 20:01N 47°60' W 122°13'1 1.1
2017-Oct-14 19:27N 48°00' W 122°13'0 0.1
2017-Oct-14 18:54N 48°00' W 122°13'0 0.9
2017-Oct-14 18:28N 47°60' W 122°14'0 0.6
2017-Oct-14 17:59N 47°60' W 122°13'0 0.0
2017-Oct-14 17:30N 47°60' W 122°13'0 0.0
2017-Oct-14 17:00N 47°60' W 122°13'0 0.0
2017-Oct-14 16:30N 47°60' W 122°13'0 0.0
2017-Oct-14 15:59N 47°60' W 122°13'1 2.2
2017-Oct-14 15:30N 47°59' W 122°14'1 1.5
2017-Oct-14 15:00N 47°59' W 122°13'0 0.0
2017-Oct-14 14:30N 47°59' W 122°13'  
2017-Oct-08 21:26N 47°59' W 122°13'2 5.2
2017-Oct-08 21:00N 47°58' W 122°16'4 7.5
2017-Oct-08 20:30N 47°56' W 122°20'3 6.7
2017-Oct-08 20:00N 47°53' W 122°23'4 7.0
2017-Oct-08 19:30N 47°49' W 122°24'4 7.9
2017-Oct-08 19:00N 47°46' W 122°27'4 7.6
2017-Oct-08 18:26N 47°43' W 122°33'5 7.9
2017-Oct-08 17:52N 47°40' W 122°36'1 0.0
2017-Oct-07 18:53N 47°39' W 122°37'0 0.0
2017-Oct-07 17:48N 47°39' W 122°37'0 0.0
2017-Oct-07 13:46N 47°39' W 122°37'0 0.0
2017-Oct-07 11:20N 47°39' W 122°37'0 0.0
2017-Oct-07 11:00N 47°39' W 122°37'0 0.0
2017-Oct-07 10:30N 47°39' W 122°37'0 0.0
2017-Oct-07 07:55N 47°39' W 122°37'0 0.0
2017-Oct-07 07:27N 47°39' W 122°37'0 0.0
2017-Oct-07 06:58N 47°39' W 122°37'0 0.0
2017-Oct-06 17:54N 47°39' W 122°37'2 4.6
2017-Oct-06 17:25N 47°41' W 122°35'5 6.1
2017-Oct-06 16:36N 47°44' W 122°30'1 6.6
2017-Oct-06 16:29N 47°45' W 122°28'3 6.4
2017-Oct-06 16:00N 47°47' W 122°26'3 6.8
2017-Oct-06 15:30N 47°50' W 122°24'4 7.2
2017-Oct-06 15:00N 47°54' W 122°21'4 8.0
2017-Oct-06 14:30N 47°57' W 122°18'4 7.4
2017-Oct-06 14:00N 47°59' W 122°14'1 0.9
2017-Oct-06 13:21N 47°59' W 122°13'  
Track history (hours):
 
Tides and Currents Weather Stations Pressure Air Temp Water Temp Dewpoint Dewpoint Depression Visibility Wind Speed Wind Dir Waves Ship Positions

Ax323189glimfeather

Last reported at 2017-Oct-15 00:12 UTC. Time now 2017-Oct-22 06:36 UTC.
Position N 47°59' W 122°13'.

Length 11 m.

Type: Pleasure craft. MMSI: 338051951.

Date/timePositionNaut miles runAvg speedWind from/ knotsBaromVisibWave heightAir tempDewpointWater temp
2017-Oct-15 00:12N 47°59' W 122°13'1 3.5
2017-Oct-15 00:00N 47°60' W 122°13'0 0.1
2017-Oct-14 23:30N 47°60' W 122°13'0 0.0
2017-Oct-14 22:59N 47°60' W 122°13'0 0.0
2017-Oct-14 22:16N 47°60' W 122°13'1 2.6
2017-Oct-14 22:00N 47°59' W 122°14'1 1.2
2017-Oct-14 21:30N 47°59' W 122°15'1 2.4
2017-Oct-14 21:00N 47°60' W 122°13'0 0.0
2017-Oct-14 20:27N 47°60' W 122°13'0 0.0
2017-Oct-14 20:01N 47°60' W 122°13'1 1.1
2017-Oct-14 19:27N 48°00' W 122°13'0 0.1
2017-Oct-14 18:54N 48°00' W 122°13'0 0.9
2017-Oct-14 18:28N 47°60' W 122°14'0 0.6
2017-Oct-14 17:59N 47°60' W 122°13'0 0.0
2017-Oct-14 17:30N 47°60' W 122°13'0 0.0
2017-Oct-14 17:00N 47°60' W 122°13'0 0.0
2017-Oct-14 16:30N 47°60' W 122°13'0 0.0
2017-Oct-14 15:59N 47°60' W 122°13'1 2.2
2017-Oct-14 15:30N 47°59' W 122°14'1 1.5
2017-Oct-14 15:00N 47°59' W 122°13'0 0.0
2017-Oct-14 14:30N 47°59' W 122°13'  
2017-Oct-08 21:26N 47°59' W 122°13'2 5.2
2017-Oct-08 21:00N 47°58' W 122°16'4 7.5
2017-Oct-08 20:30N 47°56' W 122°20'3 6.7
2017-Oct-08 20:00N 47°53' W 122°23'4 7.0
2017-Oct-08 19:30N 47°49' W 122°24'4 7.9
2017-Oct-08 19:00N 47°46' W 122°27'4 7.6
2017-Oct-08 18:26N 47°43' W 122°33'5 7.9
2017-Oct-08 17:52N 47°40' W 122°36'1 0.0
2017-Oct-07 18:53N 47°39' W 122°37'0 0.0
2017-Oct-07 17:48N 47°39' W 122°37'0 0.0
2017-Oct-07 13:46N 47°39' W 122°37'0 0.0
2017-Oct-07 11:20N 47°39' W 122°37'0 0.0
2017-Oct-07 11:00N 47°39' W 122°37'0 0.0
2017-Oct-07 10:30N 47°39' W 122°37'0 0.0
2017-Oct-07 07:55N 47°39' W 122°37'0 0.0
2017-Oct-07 07:27N 47°39' W 122°37'0 0.0
2017-Oct-07 06:58N 47°39' W 122°37'0 0.0
2017-Oct-06 17:54N 47°39' W 122°37'2 4.6
2017-Oct-06 17:25N 47°41' W 122°35'5 6.1
2017-Oct-06 16:36N 47°44' W 122°30'1 6.6
2017-Oct-06 16:29N 47°45' W 122°28'3 6.4
2017-Oct-06 16:00N 47°47' W 122°26'3 6.8
2017-Oct-06 15:30N 47°50' W 122°24'4 7.2
2017-Oct-06 15:00N 47°54' W 122°21'4 8.0
2017-Oct-06 14:30N 47°57' W 122°18'4 7.4
2017-Oct-06 14:00N 47°59' W 122°14'1 0.9
2017-Oct-06 13:21N 47°59' W 122°13'  

Dump ship's entire track history